KDMA/DMA METAR and TAF weather

Enter ICAO airport designator
Station Type Date Time Source
KDMA METAR 2023/01/29 18:35 UTC NOAA

KDMA 291835Z AUTO 21012KT 10SM CLR 17/M09 A2995 RMK AO2 WSHFT 20 SLP170 $


Station Type Date Time Source
KDMA Decoded METAR 2023/01/29 18:35 UTC NOAA

Davis-Monthan Air Force Base, AZ, United States (KDMA) 32-10N 110-53W
Jan 29, 2023 - 01:35 PM EST / 2023.01.29 1835 UTC
Wind: from the SSW (210 degrees) at 14 MPH (12 KT):0
Visibility: 10 mile(s):0
Sky conditions: clear
Temperature: 62 F (17 C)
Dew Point: 15 F (-9 C)
Relative Humidity: 15%
Pressure (altimeter): 29.95 in. Hg (1014 hPa)
ob: KDMA 291835Z AUTO 21012KT 10SM CLR 17/M09 A2995 RMK AO2 WSHFT 20 SLP170
cycle: 18

Station Type Date Time Source
KDMA TAF 2023/01/29 18:30 UTC NOAA

TAF TAF
AMD KDMA 291800Z 2918/3020 16012G20KT 9999 SKC QNH2996INS
BECMG 3001/3002 16009KT 9999 SKC QNH2984INS
BECMG 3005/3006 VRB06KT 9999 SKC QNH2993INS TX18/2922Z TN15/2918Z

Example: see airport list